Main page
METAR-TAF:

METAR-TAF

Airports :

Tuzla, Bosnia and Herzegovina

Tuzla International Airport

latitude: 44-33N, longitude: 018-42E, elevation: 306 m

Current weather observation

The report was made 30 minutes ago, at 14:00 UTC
Wind 5 kt from the East, varying between Northeast and South
Temperature 24°C
Humidity 38%
Pressure 1022 hPa
Visibility 10 km or more
Scattered clouds at a height of 5000 ft

METAR: LQTZ 281400Z 10005KT 050V170 9999 SCT050 24/09 Q1022

Time: 16:30 (14:30 UTC)

Forecast

The report was made 3 hours and 30 minutes ago, at 11:00 UTC
Forecast valid from 28 at 12 UTC to 29 at 12 UTC
Wind 5 kt from the East
Visibility 10 km or more
Scattered clouds at a height of 4500 ft
Probability 40% :
Temporary
from 29 at 03 UTC to 29 at 06 UTC
Visibility: 3000 m
mist

TAF: LQTZ 281100Z 2812/2912 09005KT 9999 SCT045 TX24/2814Z TN08/2903Z PROB40 TEMPO 2903/2906 3000 BR

Weather observations and forecasts of more than 4000 airports (METAR and TAF reports).

The available stations are represented by yellow and red dots on the map.

Hover mouse over dot to see the name of the station.

Then click to see weather observations and forecasts.

To change the map : click on the green buttons with a black cross to zoom in, on the green button with a dash to zoom out, or on the green arrows for adjacent maps.


METAR-TAF: